Waelder, Texas
Current Conditions -  °F | °C
As of 6:55 AM on Monday 20 Oct 2014 (Local Time) from KT20 Reporting Station
Haze Haze  
Wind Chill: 63°   Ceiling: Unl
Heat Index: 63°   Visibility: 2.5mi
Dew Point: 63°   Wind: 3mph
Humidity: 99%   Direction: 30°NNE
Pressure: 30.02"   Gusts: NA
Location:  29.7°N, 97.3°W
Report Text: KT20 201155Z AUTO 03003KT 2 1/2SM BR CLR 17/17 A3002 RMK AO2 T01710170 10195 20163
Loading
Personal Weather Stations






























Interactive Weather Map
Tropical Storm Tracking
New forecast layout! Learn more

10-Day Weather Forecast

Advertisements
Track Severe Weather on mobile